Time;durP1;ratioP1;P1;durP2;ratioP2;P2;SDS_P1;SDS_P2;PMS_P1;PMS_P2;Temp;Humidity;BMP_temperature;BMP_pressure;BME280_temperature;BME280_humidity;BME280_pressure;Samples;Min_cycle;Max_cycle;Signal;HPM_P1;HPM_P2
2022/10/28 00:01:03;;;;;;;2.83;1.70;;;17.40;71.90;;;;;;5091572;28;20040;-72
2022/10/28 00:03:30;;;;;;;3.10;1.90;;;17.30;71.80;;;;;;5092215;28;20056;-72
2022/10/28 00:06:01;;;;;;;2.78;1.80;;;17.30;71.80;;;;;;5092208;28;20047;-72
2022/10/28 00:08:28;;;;;;;2.90;1.80;;;17.30;71.80;;;;;;5090980;28;20052;-72
2022/10/28 00:11:02;;;;;;;2.25;1.55;;;17.30;71.80;;;;;;5090823;28;20059;-72
2022/10/28 00:13:29;;;;;;;2.70;1.70;;;17.30;71.80;;;;;;5072706;28;20061;-72
2022/10/28 00:15:56;;;;;;;2.22;1.70;;;17.30;71.90;;;;;;5071941;28;20408;-72
2022/10/28 00:18:24;;;;;;;2.42;1.60;;;17.30;71.90;;;;;;5071559;28;20490;-73
2022/10/28 00:20:51;;;;;;;2.75;1.70;;;17.30;71.90;;;;;;5071642;28;20504;-72
2022/10/28 00:23:18;;;;;;;2.00;1.65;;;17.30;71.90;;;;;;5071743;28;20063;-72
2022/10/28 00:25:44;;;;;;;2.55;1.70;;;17.20;71.80;;;;;;5070681;28;20048;-72
2022/10/28 00:28:11;;;;;;;3.20;1.77;;;17.30;71.90;;;;;;5070261;28;20059;-73
2022/10/28 00:30:38;;;;;;;2.45;1.73;;;17.30;71.90;;;;;;5090553;28;20489;-72
2022/10/28 00:33:04;;;;;;;2.95;1.80;;;17.30;71.90;;;;;;5091800;28;20048;-72
2022/10/28 00:35:32;;;;;;;2.70;1.92;;;17.20;71.90;;;;;;5090759;28;20055;-72
2022/10/28 00:37:59;;;;;;;2.33;1.70;;;17.30;71.90;;;;;;5091752;28;20052;-72
2022/10/28 00:40:26;;;;;;;3.03;1.52;;;17.20;71.90;;;;;;5090572;28;20052;-72
2022/10/28 00:42:52;;;;;;;2.72;1.88;;;17.20;71.90;;;;;;5090835;28;20066;-72
2022/10/28 00:45:19;;;;;;;3.47;2.10;;;17.20;71.90;;;;;;5072742;28;20071;-72
2022/10/28 00:47:50;;;;;;;2.20;1.70;;;17.20;71.90;;;;;;5071782;28;20397;-72
2022/10/28 00:50:33;;;;;;;1.98;1.60;;;17.20;71.90;;;;;;5070164;28;20052;-72
2022/10/28 00:53:01;;;;;;;3.03;1.80;;;17.20;71.90;;;;;;5069917;28;20072;-72
2022/10/28 00:55:28;;;;;;;2.28;1.75;;;17.20;71.90;;;;;;5071622;28;20055;-72
2022/10/28 00:57:55;;;;;;;4.03;1.90;;;17.20;71.90;;;;;;5073287;28;20400;-72
2022/10/28 01:00:22;;;;;;;2.60;1.70;;;17.20;71.90;;;;;;5091612;28;20056;-72
2022/10/28 01:02:49;;;;;;;3.17;2.00;;;17.20;71.90;;;;;;5095565;28;20054;-72
2022/10/28 01:05:17;;;;;;;3.10;1.70;;;17.20;71.90;;;;;;5094447;28;20055;-72
2022/10/28 01:07:45;;;;;;;2.85;2.00;;;17.10;71.80;;;;;;5094192;28;20052;-72
2022/10/28 01:10:12;;;;;;;2.72;1.98;;;17.20;71.90;;;;;;5095234;28;20050;-72
2022/10/28 01:12:45;;;;;;;4.00;1.92;;;17.20;71.90;;;;;;5092124;28;20052;-72
2022/10/28 01:15:15;;;;;;;2.85;2.00;;;17.20;71.90;;;;;;5074094;28;20062;-72
2022/10/28 01:17:52;;;;;;;3.45;1.98;;;17.20;71.90;;;;;;5074805;28;20052;-72
2022/10/28 01:20:57;;;;;;;5.10;1.98;;;17.10;71.80;;;;;;5073540;28;20052;-72
2022/10/28 01:23:29;;;;;;;3.70;2.45;;;17.10;71.70;;;;;;5059483;28;20503;-72
2022/10/28 01:26:37;;;;;;;2.70;2.13;;;17.10;71.90;;;;;;5074929;28;20059;-72
2022/10/28 01:29:30;;;;;;;2.67;1.88;;;17.10;71.80;;;;;;5071662;28;20404;-72
2022/10/28 01:31:59;;;;;;;3.28;2.13;;;17.10;71.90;;;;;;5074616;28;20056;-72
2022/10/28 01:34:29;;;;;;;2.50;1.90;;;17.10;71.90;;;;;;5074886;28;20419;-72
2022/10/28 01:36:57;;;;;;;4.03;2.15;;;17.10;72.40;;;;;;5073015;28;20071;-72
2022/10/28 01:39:28;;;;;;;3.25;1.88;;;17.10;71.90;;;;;;5074609;28;20382;-72
2022/10/28 01:41:58;;;;;;;2.67;2.10;;;17.10;71.90;;;;;;5077365;28;20059;-72
2022/10/28 01:44:27;;;;;;;4.78;2.15;;;17.10;71.90;;;;;;5094979;28;20048;-72
2022/10/28 01:46:59;;;;;;;2.50;1.92;;;17.10;71.90;;;;;;5094829;28;20082;-72
2022/10/28 01:49:27;;;;;;;3.00;2.10;;;17.10;71.90;;;;;;5094424;28;20055;-72
2022/10/28 01:51:55;;;;;;;2.30;1.90;;;17.10;71.90;;;;;;5092987;28;20389;-72
2022/10/28 01:54:24;;;;;;;2.95;2.08;;;17.10;71.90;;;;;;5094516;28;20047;-72
2022/10/28 01:56:51;;;;;;;3.22;2.10;;;17.10;71.90;;;;;;5088334;28;21876;-72
2022/10/28 01:59:20;;;;;;;2.53;2.00;;;17.10;71.90;;;;;;5074386;28;20052;-72
2022/10/28 02:01:47;;;;;;;3.00;1.90;;;17.10;71.90;;;;;;5073714;28;20052;-73
2022/10/28 02:04:15;;;;;;;2.38;1.92;;;17.10;71.90;;;;;;5074201;28;20045;-72
2022/10/28 02:06:43;;;;;;;2.70;2.10;;;17.10;71.90;;;;;;5072966;28;20056;-72
2022/10/28 02:09:19;;;;;;;3.60;2.30;;;17.10;71.90;;;;;;5074241;28;20401;-72
2022/10/28 02:12:19;;;;;;;4.10;2.10;;;17.10;71.80;;;;;;5076804;28;20040;-72
2022/10/28 02:14:58;;;;;;;3.53;2.05;;;17.10;71.70;;;;;;5093163;28;20052;-71
2022/10/28 02:17:29;;;;;;;2.88;2.17;;;17.10;71.80;;;;;;5093080;28;20066;-72
2022/10/28 02:20:00;;;;;;;3.63;2.00;;;17.00;71.80;;;;;;5092959;28;20055;-72
2022/10/28 02:22:28;;;;;;;3.08;2.35;;;17.10;71.80;;;;;;5093760;28;20052;-72
2022/10/28 02:24:58;;;;;;;4.32;2.15;;;17.10;71.90;;;;;;5092879;28;20066;-71
2022/10/28 02:27:30;;;;;;;3.05;2.22;;;17.10;71.80;;;;;;5079514;28;20499;-72
2022/10/28 02:30:00;;;;;;;3.33;2.00;;;17.10;71.90;;;;;;5072036;28;20048;-71
2022/10/28 02:32:28;;;;;;;4.53;2.40;;;17.00;71.80;;;;;;5072228;28;20417;-71
2022/10/28 02:34:56;;;;;;;4.10;2.08;;;17.00;71.80;;;;;;5072011;28;20058;-71
2022/10/28 02:37:25;;;;;;;2.85;2.28;;;17.10;71.80;;;;;;5073555;28;20055;-72
2022/10/28 02:39:53;;;;;;;2.83;2.33;;;17.10;71.80;;;;;;5072397;28;20052;-72
2022/10/28 02:42:22;;;;;;;4.03;2.20;;;17.10;71.80;;;;;;5087655;28;20191;-72
2022/10/28 02:44:50;;;;;;;2.60;2.22;;;17.00;71.80;;;;;;5092370;28;20048;-72
2022/10/28 02:47:19;;;;;;;3.42;2.08;;;17.00;71.80;;;;;;5092462;28;20058;-72
2022/10/28 02:49:49;;;;;;;3.30;2.22;;;17.00;71.70;;;;;;5092268;28;20408;-71
2022/10/28 02:52:17;;;;;;;3.00;2.20;;;17.00;71.70;;;;;;5092141;28;20056;-72
2022/10/28 02:54:47;;;;;;;2.70;2.00;;;17.00;71.80;;;;;;5093427;28;20047;-71
2022/10/28 02:57:15;;;;;;;2.70;1.80;;;17.00;71.80;;;;;;5073603;28;20055;-72
2022/10/28 02:59:41;;;;;;;3.15;2.15;;;17.00;71.80;;;;;;5072010;28;20044;-71
2022/10/28 03:02:09;;;;;;;2.95;2.20;;;17.00;71.80;;;;;;5071801;28;20062;-71
2022/10/28 03:04:35;;;;;;;2.95;2.30;;;17.00;71.80;;;;;;5072924;28;20045;-71
2022/10/28 03:07:02;;;;;;;3.45;2.40;;;17.00;71.80;;;;;;5071882;28;20056;-72
2022/10/28 03:09:30;;;;;;;2.70;2.10;;;17.00;71.80;;;;;;5071329;28;20497;-72
2022/10/28 03:11:57;;;;;;;2.65;2.22;;;17.00;71.80;;;;;;5088855;28;20056;-71
2022/10/28 03:14:23;;;;;;;3.10;2.28;;;17.00;71.80;;;;;;5092045;28;20063;-71
2022/10/28 03:16:50;;;;;;;3.97;2.20;;;17.00;72.30;;;;;;5091712;28;20048;-72
2022/10/28 03:19:17;;;;;;;3.40;2.30;;;17.00;71.80;;;;;;5092005;28;20497;-72
2022/10/28 03:21:43;;;;;;;4.03;1.90;;;17.00;71.80;;;;;;5091285;28;20056;-72
2022/10/28 03:24:10;;;;;;;2.45;2.00;;;17.00;71.80;;;;;;5092516;28;20044;-71
2022/10/28 03:26:38;;;;;;;3.05;2.30;;;17.00;71.80;;;;;;5073181;28;20055;-72
2022/10/28 03:29:05;;;;;;;4.82;2.67;;;17.00;71.80;;;;;;5072420;28;20135;-72
2022/10/28 03:31:31;;;;;;;3.47;2.05;;;17.00;71.80;;;;;;5071892;28;20045;-72
2022/10/28 03:33:58;;;;;;;4.63;2.42;;;17.00;71.80;;;;;;5071464;28;20053;-71
2022/10/28 03:36:25;;;;;;;3.15;2.17;;;16.90;71.70;;;;;;5072331;28;20127;-72
2022/10/28 03:38:51;;;;;;;2.35;1.80;;;16.90;71.80;;;;;;5070981;28;20044;-71
2022/10/28 03:41:18;;;;;;;2.75;2.25;;;17.00;71.80;;;;;;5091192;28;20052;-72
2022/10/28 03:43:46;;;;;;;2.83;2.13;;;16.90;71.70;;;;;;5091211;28;20432;-72
2022/10/28 03:46:13;;;;;;;3.58;1.95;;;16.90;71.80;;;;;;5091352;28;20056;-72
2022/10/28 03:48:39;;;;;;;2.42;2.03;;;16.90;71.80;;;;;;5091326;28;20058;-71
2022/10/28 03:51:06;;;;;;;3.55;2.38;;;16.90;71.80;;;;;;5092392;28;20058;-72
2022/10/28 03:53:33;;;;;;;2.95;2.03;;;16.90;71.80;;;;;;5091244;28;20508;-71
2022/10/28 03:56:00;;;;;;;3.03;2.13;;;16.90;71.80;;;;;;5072294;28;20052;-72
2022/10/28 03:58:27;;;;;;;3.35;2.28;;;16.90;71.80;;;;;;5072097;28;20054;-72
2022/10/28 04:00:55;;;;;;;4.43;2.08;;;16.90;71.80;;;;;;5071831;28;20044;-72
2022/10/28 04:03:23;;;;;;;3.72;2.28;;;16.90;71.80;;;;;;5070594;28;20062;-70
2022/10/28 04:05:49;;;;;;;3.53;2.47;;;16.90;71.80;;;;;;5070967;28;20052;-70
2022/10/28 04:08:16;;;;;;;2.75;2.03;;;16.90;71.80;;;;;;5071792;28;20508;-70
2022/10/28 04:10:43;;;;;;;2.30;2.00;;;16.90;71.80;;;;;;5090856;28;20397;-69
2022/10/28 04:13:10;;;;;;;3.75;2.10;;;16.90;71.80;;;;;;5090929;28;20047;-70
2022/10/28 04:15:37;;;;;;;3.17;2.00;;;16.90;71.80;;;;;;5090798;28;20056;-70
2022/10/28 04:18:05;;;;;;;2.85;1.92;;;16.90;71.80;;;;;;5090761;28;20048;-69
2022/10/28 04:20:32;;;;;;;2.55;2.20;;;16.90;71.80;;;;;;5090720;28;20190;-70
2022/10/28 04:22:58;;;;;;;3.60;2.20;;;16.90;71.80;;;;;;5089255;28;20048;-70
2022/10/28 04:25:26;;;;;;;2.83;2.05;;;16.90;71.80;;;;;;5070967;28;20056;-69
2022/10/28 04:27:53;;;;;;;2.97;2.17;;;16.90;71.80;;;;;;5071548;28;20390;-72
2022/10/28 04:30:19;;;;;;;3.28;2.20;;;16.90;71.80;;;;;;5070500;28;20049;-71
2022/10/28 04:32:46;;;;;;;2.40;2.10;;;16.80;71.70;;;;;;5070745;28;20054;-71
2022/10/28 04:35:14;;;;;;;3.47;2.33;;;16.90;71.80;;;;;;5070761;28;20507;-71
2022/10/28 04:37:41;;;;;;;3.30;2.22;;;16.90;71.80;;;;;;5076382;28;20048;-71
2022/10/28 04:40:09;;;;;;;2.20;2.00;;;16.90;71.80;;;;;;5081027;28;20511;-72
2022/10/28 04:42:36;;;;;;;3.17;2.17;;;16.90;71.80;;;;;;5093548;28;20060;-71
2022/10/28 04:45:02;;;;;;;3.30;2.30;;;16.80;71.70;;;;;;5094832;28;20052;-72
2022/10/28 04:47:29;;;;;;;2.88;2.10;;;16.80;71.70;;;;;;5095759;28;20400;-72
2022/10/28 04:49:56;;;;;;;4.22;2.22;;;16.80;71.70;;;;;;5095743;28;20051;-72
2022/10/28 04:52:24;;;;;;;3.83;2.13;;;16.80;71.70;;;;;;5094823;28;20055;-72
2022/10/28 04:54:50;;;;;;;2.70;2.30;;;16.80;71.70;;;;;;5092989;28;20052;-71
2022/10/28 04:57:17;;;;;;;2.83;2.25;;;16.80;71.70;;;;;;5094706;28;20386;-71
2022/10/28 04:59:45;;;;;;;3.28;2.20;;;16.80;71.70;;;;;;5095359;28;20044;-71
2022/10/28 05:02:11;;;;;;;3.28;2.20;;;16.80;71.70;;;;;;5095465;28;20044;-71
2022/10/28 05:04:38;;;;;;;4.13;2.28;;;16.80;71.70;;;;;;5094583;28;20058;-71
2022/10/28 05:07:05;;;;;;;4.40;2.33;;;16.80;71.70;;;;;;5094698;28;20060;-71
2022/10/28 05:09:33;;;;;;;2.78;2.15;;;16.80;71.70;;;;;;5091962;28;20098;-71
2022/10/28 05:12:00;;;;;;;3.33;2.28;;;16.80;71.70;;;;;;5073946;28;20483;-71
2022/10/28 05:14:27;;;;;;;3.05;2.35;;;16.80;71.70;;;;;;5075150;28;20400;-72
2022/10/28 05:16:53;;;;;;;2.75;2.25;;;16.80;71.70;;;;;;5075238;28;20064;-72
2022/10/28 05:19:20;;;;;;;2.33;1.95;;;16.80;71.70;;;;;;5073819;28;20058;-72
2022/10/28 05:21:47;;;;;;;3.10;2.40;;;16.80;71.70;;;;;;5074873;28;20049;-72
2022/10/28 05:24:13;;;;;;;2.97;2.20;;;16.80;71.70;;;;;;5079418;28;20267;-72
2022/10/28 05:26:41;;;;;;;3.55;2.40;;;16.80;71.70;;;;;;5095046;28;20044;-72
2022/10/28 05:29:08;;;;;;;3.25;2.50;;;16.80;71.70;;;;;;5094323;28;20055;-72
2022/10/28 05:31:35;;;;;;;3.15;2.53;;;16.80;71.70;;;;;;5092467;28;20526;-72
2022/10/28 05:34:01;;;;;;;3.50;2.50;;;16.80;71.70;;;;;;5094033;28;20058;-71
2022/10/28 05:36:28;;;;;;;3.17;2.30;;;16.80;71.70;;;;;;5092727;28;20138;-71
2022/10/28 05:38:55;;;;;;;3.35;2.17;;;16.80;71.70;;;;;;5089501;28;20059;-72
2022/10/28 05:41:21;;;;;;;2.50;2.17;;;16.80;71.60;;;;;;5072226;28;20408;-72
2022/10/28 05:43:50;;;;;;;3.47;2.22;;;16.80;71.70;;;;;;5073729;28;20051;-72
2022/10/28 05:46:17;;;;;;;3.30;2.20;;;16.80;71.70;;;;;;5073157;28;20055;-72
2022/10/28 05:48:44;;;;;;;3.13;2.00;;;16.70;71.60;;;;;;5072183;28;20058;-72
2022/10/28 05:51:10;;;;;;;6.82;2.40;;;16.80;71.60;;;;;;5073270;28;20387;-72
2022/10/28 05:53:37;;;;;;;2.50;2.15;;;16.80;71.60;;;;;;5077870;28;20044;-72
2022/10/28 05:56:04;;;;;;;3.70;2.42;;;16.70;71.60;;;;;;5093270;28;20052;-72
2022/10/28 05:58:31;;;;;;;2.67;2.17;;;16.80;71.60;;;;;;5093423;28;20048;-72
2022/10/28 06:00:59;;;;;;;4.38;2.30;;;16.70;71.60;;;;;;5093185;28;20048;-72
2022/10/28 06:03:26;;;;;;;6.25;2.35;;;16.70;71.50;;;;;;5093475;28;20074;-72
2022/10/28 06:05:53;;;;;;;2.78;2.20;;;16.70;71.60;;;;;;5093364;28;20052;-71
2022/10/28 06:08:20;;;;;;;3.42;2.42;;;16.70;71.60;;;;;;5086304;28;20052;-71
2022/10/28 06:10:50;;;;;;;3.00;2.40;;;16.70;71.60;;;;;;5072620;28;20052;-72
2022/10/28 06:13:17;;;;;;;3.17;2.22;;;16.70;71.60;;;;;;5055490;28;20082;-72
2022/10/28 06:15:43;;;;;;;3.85;2.10;;;16.70;71.60;;;;;;5071723;28;20058;-71
2022/10/28 06:18:11;;;;;;;2.90;2.20;;;16.70;71.60;;;;;;5071726;28;20504;-71
2022/10/28 06:20:38;;;;;;;3.95;2.30;;;16.70;71.60;;;;;;5072690;28;20045;-72
2022/10/28 06:23:05;;;;;;;4.35;2.33;;;16.70;71.60;;;;;;5079297;28;20056;-72
2022/10/28 06:25:31;;;;;;;2.90;2.20;;;16.70;71.60;;;;;;5093054;28;20048;-72
2022/10/28 06:28:01;;;;;;;3.07;2.50;;;16.70;71.50;;;;;;5056546;28;1034173;-72
2022/10/28 06:30:28;;;;;;;4.32;2.42;;;16.70;71.60;;;;;;5092496;28;20142;-73
2022/10/28 06:32:56;;;;;;;3.65;2.55;;;16.70;71.60;;;;;;5092416;28;20058;-72
2022/10/28 06:35:24;;;;;;;3.35;2.40;;;16.70;71.60;;;;;;5092805;28;20060;-71
2022/10/28 06:37:53;;;;;;;3.00;2.38;;;16.70;71.60;;;;;;5084759;28;20048;-72
2022/10/28 06:40:20;;;;;;;2.97;2.47;;;16.70;71.60;;;;;;5073295;28;20048;-72
2022/10/28 06:42:47;;;;;;;2.70;2.40;;;16.70;71.60;;;;;;5073627;28;20052;-72
2022/10/28 06:45:13;;;;;;;2.55;2.20;;;16.70;71.60;;;;;;5073618;28;20416;-72
2022/10/28 06:47:40;;;;;;;3.15;2.30;;;16.70;71.60;;;;;;5072209;28;20049;-72
2022/10/28 06:50:07;;;;;;;3.42;2.60;;;16.70;71.60;;;;;;5072798;28;20055;-72
2022/10/28 06:52:35;;;;;;;4.20;2.30;;;16.70;71.60;;;;;;5073011;28;20409;-71
2022/10/28 06:55:02;;;;;;;3.25;2.20;;;16.70;71.60;;;;;;5075565;28;20052;-74
2022/10/28 06:57:29;;;;;;;2.92;2.20;;;16.60;71.50;;;;;;5092976;28;20056;-73
2022/10/28 06:59:55;;;;;;;3.50;2.10;;;16.70;71.60;;;;;;5091557;28;20052;-73
2022/10/28 07:02:22;;;;;;;4.35;2.20;;;16.70;71.60;;;;;;5093536;28;20052;-73
2022/10/28 07:04:49;;;;;;;3.35;2.30;;;16.70;71.60;;;;;;5093123;28;20048;-72
2022/10/28 07:07:15;;;;;;;2.67;2.42;;;16.70;71.50;;;;;;5093380;28;20052;-74
2022/10/28 07:09:45;;;;;;;2.40;1.90;;;16.70;71.50;;;;;;5077983;28;20401;-73
2022/10/28 07:12:11;;;;;;;5.15;2.13;;;16.70;71.40;;;;;;5071628;28;20066;-72
2022/10/28 07:14:38;;;;;;;4.20;2.47;;;16.80;71.40;;;;;;5081624;28;20044;-73
2022/10/28 07:17:05;;;;;;;4.05;2.20;;;16.80;71.40;;;;;;5082202;28;20044;-71
2022/10/28 07:19:31;;;;;;;4.25;2.42;;;16.80;71.30;;;;;;5075350;28;20478;-73
2022/10/28 07:21:58;;;;;;;3.13;2.40;;;16.90;71.30;;;;;;5076519;28;20052;-73
2022/10/28 07:24:25;;;;;;;3.72;2.45;;;16.90;71.20;;;;;;5081675;28;20044;-73
2022/10/28 07:26:53;;;;;;;3.60;2.03;;;16.90;71.10;;;;;;5083550;28;20044;-73
2022/10/28 07:29:20;;;;;;;3.63;2.17;;;17.00;71.10;;;;;;5081676;28;20066;-73
2022/10/28 07:31:46;;;;;;;4.85;2.40;;;17.00;71.00;;;;;;5078204;28;20572;-73
2022/10/28 07:34:13;;;;;;;2.85;2.10;;;17.10;71.00;;;;;;5081880;28;20052;-73
2022/10/28 07:36:40;;;;;;;3.88;2.20;;;17.10;70.90;;;;;;5085712;28;20040;-73
2022/10/28 07:39:06;;;;;;;3.95;2.03;;;17.10;70.90;;;;;;5089336;28;20043;-73
2022/10/28 07:41:33;;;;;;;3.10;2.20;;;17.20;70.90;;;;;;5112707;28;20040;-73
2022/10/28 07:44:01;;;;;;;6.10;2.25;;;17.20;70.90;;;;;;5094836;28;20424;-73
2022/10/28 07:46:28;;;;;;;3.83;2.20;;;17.20;70.80;;;;;;5071345;28;20052;-72
2022/10/28 07:48:54;;;;;;;2.80;1.90;;;17.20;70.70;;;;;;5075095;28;20056;-73
2022/10/28 07:51:21;;;;;;;2.85;2.10;;;17.30;70.70;;;;;;5081714;28;20052;-73
2022/10/28 07:53:48;;;;;;;2.70;2.05;;;17.30;70.60;;;;;;5085646;28;20062;-72
2022/10/28 07:56:15;;;;;;;3.58;2.00;;;17.30;70.50;;;;;;5090629;28;20070;-72
2022/10/28 07:58:42;;;;;;;2.53;2.00;;;17.30;70.40;;;;;;5090721;28;20055;-71
2022/10/28 08:01:11;;;;;;;2.95;2.00;;;17.40;70.40;;;;;;5091000;28;20074;-72
2022/10/28 08:03:38;;;;;;;3.67;2.08;;;17.40;70.30;;;;;;5091315;28;20414;-72
2022/10/28 08:06:06;;;;;;;2.97;1.90;;;17.40;70.30;;;;;;5082441;28;20051;-73
2022/10/28 08:08:33;;;;;;;3.35;2.10;;;17.40;70.20;;;;;;5079816;28;20060;-72
2022/10/28 08:10:59;;;;;;;3.25;2.17;;;17.50;70.30;;;;;;5070265;28;20059;-71
2022/10/28 08:13:26;;;;;;;4.05;2.08;;;17.50;70.20;;;;;;5070793;28;20066;-71
2022/10/28 08:15:53;;;;;;;3.03;2.05;;;17.50;70.20;;;;;;5088455;28;20502;-72
2022/10/28 08:18:21;;;;;;;4.70;2.20;;;17.50;70.10;;;;;;5089799;28;20136;-71
2022/10/28 08:20:48;;;;;;;3.22;2.20;;;17.60;70.10;;;;;;5074701;28;20054;-72
2022/10/28 08:23:15;;;;;;;3.38;1.88;;;17.60;70.00;;;;;;5072105;28;20074;-73
2022/10/28 08:25:48;;;;;;;2.70;2.10;;;17.60;70.00;;;;;;5081325;28;20050;-73
2022/10/28 08:28:14;;;;;;;3.05;2.10;;;17.60;70.00;;;;;;5111081;28;20043;-73
2022/10/28 08:30:41;;;;;;;4.13;2.20;;;17.60;70.00;;;;;;5105516;28;20408;-72
2022/10/28 08:33:08;;;;;;;5.43;2.20;;;17.60;70.00;;;;;;5092002;28;20044;-72
2022/10/28 08:35:36;;;;;;;2.67;1.90;;;17.70;70.00;;;;;;5092019;28;20050;-72
2022/10/28 08:38:02;;;;;;;2.90;2.00;;;17.70;70.00;;;;;;5091622;28;20058;-72
2022/10/28 08:40:32;;;;;;;4.47;2.13;;;17.70;69.90;;;;;;5086748;28;20047;-72
2022/10/28 08:43:00;;;;;;;3.28;2.20;;;17.70;69.80;;;;;;5098460;28;20047;-72
2022/10/28 08:45:31;;;;;;;5.15;2.10;;;17.70;69.80;;;;;;5094265;28;20132;-73
2022/10/28 08:48:05;;;;;;;6.50;2.50;;;17.80;69.90;;;;;;5083971;28;20132;-73
2022/10/28 08:50:32;;;;;;;3.97;2.22;;;17.80;69.90;;;;;;5071252;28;20059;-72
2022/10/28 08:53:03;;;;;;;4.97;2.70;;;17.80;69.90;;;;;;5071474;28;20048;-73
2022/10/28 08:55:31;;;;;;;5.03;2.20;;;17.80;69.80;;;;;;5090149;28;20058;-71
2022/10/28 08:58:00;;;;;;;3.38;2.30;;;17.90;69.80;;;;;;5076044;28;20050;-72
2022/10/28 09:00:29;;;;;;;3.28;2.30;;;17.90;69.80;;;;;;5090967;28;20036;-73
2022/10/28 09:03:02;;;;;;;4.72;1.95;;;17.90;69.70;;;;;;5090238;28;20064;-73
2022/10/28 09:05:29;;;;;;;3.95;2.13;;;17.90;69.70;;;;;;5075288;28;20052;-71
2022/10/28 09:07:56;;;;;;;4.90;2.20;;;17.90;69.70;;;;;;5071551;28;20049;-71
2022/10/28 09:10:38;;;;;;;4.35;1.98;;;17.90;69.70;;;;;;5070046;28;20048;-72
2022/10/28 09:13:07;;;;;;;3.53;2.30;;;17.90;69.70;;;;;;5070008;28;20056;-71
2022/10/28 09:15:34;;;;;;;4.63;2.28;;;17.90;69.70;;;;;;5072639;28;20086;-71
2022/10/28 09:18:04;;;;;;;4.10;2.00;;;17.90;69.60;;;;;;5070274;28;20052;-71
2022/10/28 09:20:36;;;;;;;3.28;2.28;;;18.00;69.70;;;;;;5082020;28;20070;-72
2022/10/28 09:23:05;;;;;;;5.03;2.72;;;18.00;69.70;;;;;;5093676;28;20056;-71
2022/10/28 09:25:39;;;;;;;3.85;2.17;;;18.00;69.80;;;;;;5080949;28;20059;-71
2022/10/28 09:28:20;;;;;;;3.47;2.05;;;17.90;69.70;;;;;;5073360;28;20409;-71
2022/10/28 09:30:51;;;;;;;3.80;2.00;;;18.00;69.70;;;;;;5084477;28;20043;-72
2022/10/28 09:33:39;;;;;;;5.18;2.53;;;18.00;69.70;;;;;;5082318;28;20154;-71
2022/10/28 09:36:07;;;;;;;3.83;2.65;;;18.00;70.00;;;;;;5080798;28;20048;-71
2022/10/28 09:38:34;;;;;;;3.60;2.30;;;17.90;70.00;;;;;;5081732;28;20044;-71
2022/10/28 09:41:04;;;;;;;4.25;2.30;;;17.90;70.10;;;;;;5083152;28;20497;-72
2022/10/28 09:43:32;;;;;;;3.00;2.15;;;18.00;70.20;;;;;;5084780;28;20527;-72
2022/10/28 09:46:01;;;;;;;5.93;2.47;;;17.90;70.20;;;;;;5082447;28;20633;-72
2022/10/28 09:48:29;;;;;;;4.82;2.50;;;17.90;70.20;;;;;;5083621;28;20039;-72
2022/10/28 09:50:56;;;;;;;3.65;2.10;;;17.90;70.20;;;;;;5083259;28;20058;-72
2022/10/28 09:53:29;;;;;;;4.75;2.10;;;17.90;70.20;;;;;;5083899;28;20560;-72
2022/10/28 09:55:56;;;;;;;4.47;2.70;;;17.90;70.20;;;;;;5082810;28;20060;-72
2022/10/28 09:58:24;;;;;;;6.75;2.75;;;17.90;70.30;;;;;;5085019;28;20045;-73
2022/10/28 10:00:50;;;;;;;5.47;2.10;;;17.90;70.30;;;;;;5081836;28;20401;-72
2022/10/28 10:03:17;;;;;;;4.38;2.38;;;17.90;70.30;;;;;;5082382;28;20052;-72
2022/10/28 10:05:47;;;;;;;6.82;2.45;;;17.90;70.30;;;;;;5083424;28;20412;-72
2022/10/28 10:08:15;;;;;;;6.20;2.53;;;17.90;70.40;;;;;;5083634;28;20071;-72
2022/10/28 10:10:46;;;;;;;3.50;2.25;;;17.90;70.40;;;;;;5087485;28;20135;-72
2022/10/28 10:13:13;;;;;;;5.75;2.08;;;17.90;70.40;;;;;;5083790;28;20052;-72
2022/10/28 10:15:44;;;;;;;4.32;2.20;;;17.90;70.50;;;;;;5081875;28;20070;-72
2022/10/28 10:18:13;;;;;;;4.13;2.30;;;17.90;70.50;;;;;;5081040;28;20408;-72
2022/10/28 10:20:47;;;;;;;4.88;2.63;;;17.90;70.60;;;;;;5089070;28;20055;-72
2022/10/28 10:23:22;;;;;;;3.42;2.30;;;18.00;70.60;;;;;;5089732;28;20056;-72
2022/10/28 10:25:53;;;;;;;4.30;2.40;;;17.40;70.10;;;;;;5080059;28;20052;-73
2022/10/28 10:28:20;;;;;;;4.38;2.22;;;17.90;70.60;;;;;;5073429;28;20053;-72
2022/10/28 10:30:49;;;;;;;6.93;2.33;;;18.00;70.60;;;;;;5073117;28;20052;-74
2022/10/28 10:33:18;;;;;;;4.85;2.60;;;18.00;70.60;;;;;;5087871;28;20056;-72
2022/10/28 10:35:45;;;;;;;5.80;2.33;;;17.90;70.60;;;;;;5083014;28;20040;-71
2022/10/28 10:38:14;;;;;;;5.72;2.60;;;17.90;70.60;;;;;;5085755;28;20060;-72
2022/10/28 10:40:46;;;;;;;4.07;2.30;;;17.90;70.60;;;;;;5073783;28;20481;-72
2022/10/28 10:43:21;;;;;;;7.65;2.25;;;17.90;70.70;;;;;;5073257;28;20050;-72
2022/10/28 10:46:01;;;;;;;2.90;2.20;;;18.00;70.80;;;;;;5087925;28;20056;-72
2022/10/28 10:48:29;;;;;;;4.05;2.30;;;18.00;70.90;;;;;;5092552;28;20056;-73
2022/10/28 10:50:56;;;;;;;4.25;2.33;;;17.90;70.80;;;;;;5091499;28;20097;-73
2022/10/28 10:53:24;;;;;;;4.57;2.33;;;17.90;70.90;;;;;;5081124;28;20040;-71
2022/10/28 10:55:53;;;;;;;3.47;2.10;;;18.00;70.90;;;;;;5080350;28;20075;-72
2022/10/28 10:58:21;;;;;;;3.72;2.28;;;17.90;70.90;;;;;;5071444;28;20120;-72
2022/10/28 11:00:49;;;;;;;3.03;2.30;;;17.90;70.80;;;;;;5071314;28;20481;-72
2022/10/28 11:03:20;;;;;;;4.00;2.30;;;18.00;70.80;;;;;;5080844;28;20047;-71
2022/10/28 11:05:48;;;;;;;4.88;2.20;;;18.00;70.80;;;;;;5085943;28;20060;-71
2022/10/28 11:08:33;;;;;;;3.58;2.20;;;18.00;70.80;;;;;;5086558;28;20044;-71
2022/10/28 11:11:08;;;;;;;4.17;2.20;;;18.00;70.70;;;;;;5080718;28;20091;-72
2022/10/28 11:13:35;;;;;;;3.58;2.20;;;17.90;70.70;;;;;;5082888;28;20302;-71
2022/10/28 11:16:02;;;;;;;2.85;2.00;;;17.90;70.70;;;;;;5079871;28;20656;-72
2022/10/28 11:18:38;;;;;;;3.10;2.10;;;17.90;70.70;;;;;;5080103;28;20386;-72
2022/10/28 11:21:07;;;;;;;4.00;2.40;;;18.00;70.70;;;;;;5077269;28;20049;-72
2022/10/28 11:23:40;;;;;;;4.30;2.20;;;18.00;70.70;;;;;;5073698;28;20085;-72
2022/10/28 11:26:08;;;;;;;3.90;2.15;;;18.00;70.70;;;;;;5080515;28;20080;-72
2022/10/28 11:28:48;;;;;;;3.53;2.50;;;17.90;70.60;;;;;;5077750;28;20048;-72
2022/10/28 11:31:38;;;;;;;4.03;2.30;;;18.00;70.60;;;;;;5075599;28;20044;-72
2022/10/28 11:34:17;;;;;;;4.43;2.45;;;18.00;70.60;;;;;;5071460;28;20070;-72
2022/10/28 11:36:45;;;;;;;5.43;2.30;;;18.00;70.60;;;;;;5086182;28;20401;-72
2022/10/28 11:39:19;;;;;;;3.85;2.42;;;18.00;70.70;;;;;;5071682;28;20066;-73
2022/10/28 11:41:59;;;;;;;5.43;2.97;;;18.00;70.70;;;;;;5081067;28;20078;-73
2022/10/28 11:44:34;;;;;;;5.70;2.35;;;18.00;70.70;;;;;;5089826;28;20051;-73
2022/10/28 11:47:08;;;;;;;5.50;2.58;;;18.00;70.80;;;;;;5078030;28;20062;-72
2022/10/28 11:50:05;;;;;;;4.10;2.63;;;18.00;70.80;;;;;;5071528;28;20412;-72
2022/10/28 11:52:39;;;;;;;5.68;2.05;;;18.00;70.70;;;;;;5070527;28;20478;-72
2022/10/28 11:55:14;;;;;;;3.13;2.08;;;18.00;70.80;;;;;;5072262;28;20104;-72
2022/10/28 11:57:48;;;;;;;3.97;1.90;;;18.00;70.80;;;;;;5086872;28;20050;-72
2022/10/28 12:00:25;;;;;;;3.42;1.98;;;18.00;70.80;;;;;;5090274;28;20044;-73
2022/10/28 12:02:59;;;;;;;2.40;1.90;;;18.00;70.70;;;;;;5090936;28;20048;-73
2022/10/28 12:05:29;;;;;;;2.95;1.80;;;18.00;70.70;;;;;;5073986;28;20063;-72
2022/10/28 12:08:05;;;;;;;4.10;2.00;;;18.00;70.70;;;;;;5071209;28;20416;-71
2022/10/28 12:10:35;;;;;;;5.10;2.20;;;18.00;70.70;;;;;;5070759;28;20553;-72
2022/10/28 12:13:07;;;;;;;2.50;2.20;;;18.00;70.70;;;;;;5070656;28;20054;-72
2022/10/28 12:15:40;;;;;;;4.57;2.25;;;18.00;70.70;;;;;;5070778;28;20052;-73
2022/10/28 12:18:09;;;;;;;3.50;2.10;;;18.00;70.70;;;;;;5075607;28;20431;-72
2022/10/28 12:20:39;;;;;;;3.40;2.28;;;18.00;70.70;;;;;;5073735;28;20070;-71
2022/10/28 12:23:09;;;;;;;3.10;2.10;;;18.00;70.60;;;;;;5089329;28;20052;-72
2022/10/28 12:25:36;;;;;;;3.47;2.30;;;18.00;70.60;;;;;;5090709;28;20415;-73
2022/10/28 12:28:04;;;;;;;2.88;2.40;;;18.00;70.60;;;;;;5073770;28;20436;-71
2022/10/28 12:30:31;;;;;;;3.58;2.10;;;18.00;70.60;;;;;;5078051;28;20088;-71
2022/10/28 12:33:00;;;;;;;4.32;2.25;;;18.00;70.60;;;;;;5076687;28;20131;-71
2022/10/28 12:35:28;;;;;;;4.65;2.25;;;18.00;70.60;;;;;;5091919;28;20048;-71
2022/10/28 12:38:00;;;;;;;3.00;2.10;;;18.00;70.50;;;;;;5091668;28;20052;-73
2022/10/28 12:40:29;;;;;;;2.50;1.95;;;18.00;70.50;;;;;;5091428;28;20449;-73
2022/10/28 12:42:57;;;;;;;3.28;1.98;;;18.00;70.50;;;;;;5074885;28;20048;-73
2022/10/28 12:45:24;;;;;;;2.70;2.03;;;18.00;70.50;;;;;;5070510;28;20132;-73
2022/10/28 12:47:54;;;;;;;3.17;2.33;;;18.00;70.50;;;;;;5080156;28;20062;-73
2022/10/28 12:50:25;;;;;;;3.05;2.15;;;18.00;70.50;;;;;;5078629;28;20568;-72
2022/10/28 12:53:02;;;;;;;2.75;1.92;;;18.00;70.50;;;;;;5070188;28;20054;-71
2022/10/28 12:55:33;;;;;;;3.03;2.30;;;18.00;70.50;;;;;;5071347;28;20138;-72
2022/10/28 12:58:02;;;;;;;3.35;2.03;;;18.00;70.50;;;;;;5072953;28;20548;-72